Create Custom Reports and Graphics: Custom Report

Latest Observations

Map

15 Minute Data

Lake County North

13 Stations

15 Minute Data | America/Los_Angeles
as of 10/18/19 4:52 PM PDT
Station Date Time Temp (°F) Dew Pt (°F) RH (%) Wind Spd (mph) Wind Dir (°) Wind Gust (mph) Latest Rain (In) Daily Rain (In) Daily Min Temp (°F) Daily Max Temp (°F)
Upper Lake (UPL) 10/18/19 1600 69.2   7.7 44.2   1.6 40 2.9 SW | 236 8.3 0.00 0.00 39.3   21.4 69.8   5.0
Scotts Valley (SVL) 10/18/19 1645 66.4   2.5 42.8   3.9 42 6.1 W | 261 14.7 0.00 0.00 37.5   3.5 71.5   5.7
High Valley Ridgeline (Brassfield) 10/18/19 1530 64.5   3.7 41.1   2.7 42 10.3 WSW | 237 15.6 0.00 0.00 45.6   0.4 65.0   3.8
Ridgeline Top (Brassfield) 10/18/19 1530 64.4   5.4 - - - - - - - 44.0   0.3 65.7   4.8
Ridgeline Low (Brassfield) 10/18/19 1530 62.6   1.9 - - - - - - - 45.8   0.8 63.1   0.9
High Valley Winery 10/18/19 1530 65.7   3.9 41.6   3.5 41 9.9 SW | 230 17.4 0.00 0.00 45.8   1.5 66.3   3.8
Kelseyville (KEL) 10/18/19 1300 66.4   2.0 46.4   4.1 50 4.6 NW | 323 11.6 0.00 0.00 39.8   6.8 68.0   2.4
Kelseyville Remote 10/18/19 1300 64.8   1.8 41.2   4.0 42 - - - - - 40.4   8.5 65.3   1.4
Kelseyville South (SML) 10/18/19 1645 69.3   5.7 39.8   2.9 34 4.5 W | 266 9.8 0.00 0.00 37.0   4.0 70.0   4.0
Bell Hill West (BHR) 10/18/19 1645 67.0   3.9 42.5   3.9 41 6.7 WSW | 240 11.1 0.00 0.00 39.8   9.2 69.4   4.4
Wight Way 10/18/19 1645 68.8   4.8 42.2   4.1 38 4.3 W | 280 8.9 0.00 0.00 34.5   7.1 71.2   4.0
Red Hills (Beckstoffer) 10/18/19 1645 67.0   6.6 36.1   2.1 32 - - - - - 43.7   1.6 68.2   4.5
Red Hills East (2200ft) 10/18/19 1645 65.7   6.6 39.4   1.3 38 3.0 WNW | 282 8.7 0.00 0.00 47.3   1.0 67.9   5.5
Max     69.3 44.2 42 6.7 - 14.7 0.00 0.00 47.3 71.5
Avg     67.6 41.0 38 4.6 - 10.3 0.00 - - -
Min     65.7 36.1 32 2.9 - 8.3 0.00 0.00 34.5 67.9

Latest Observation

9 Stations

15 Minute Data | America/Los_Angeles
as of 10/18/19 4:53 PM PDT
Station Date Time Temp (°F) Dew Pt (°F) RH (%) Upper Temp (°F) Wind Spd (mph) Wind Dir (°) Wind Gust (mph) Latest Rain (In) Daily Rain (In) Daily Min Temp (°F) Daily Max Temp (°F)
Diamond D (Middletown) 10/18/19 1645 69.3   4.4 42.5   6.2 38   3 68.8   4.3 5.0 SW | 228 13.7   7.0 0.00 0.00 43.7   7.7 70.9   4.1
Bella Vista-Middletown West 10/18/19 1645 69.4   3.9 42.7   5.8 38   3 - - - - - - 42.1   6.1 71.4   3.3
Middletown-South 10/18/19 1645 69.9   3.6 41.3   3.6 35   1 - 4.9 WSW | 251 11.5   0.6 0.00 0.00 38.0   6.0 77.8   6.6
Lower Bohn 10/18/19 1645 72.2   6.0 44.1   5.7 36   1 - 3.2 W | 275 7.5   13.2 0.00 0.00 41.3   11.5 74.5   5.3
Upper Bohn South 10/18/19 1645 73.3   5.8 51.7   8.4 47   5 - 1.5 WSW | 243 3.7   10.3 0.00 0.00 44.5   5.7 74.2   5.3
Upper Bohn North 10/18/19 1645 72.7   5.1 41.7   6.4 33   2 - 3.2 SW | 235 7.5   9.2 0.00 0.00 43.3   6.1 74.8   3.9
Morgan Valley (HSM) 10/18/19 1645 63.7   6.6 34.4   1.4 33   11 - 4.2 SW | 228 6.9   20.0 0.00 0.00 48.6   1.9 64.1   5.6
Mine Pit South 10/18/19 1645 70.5   7.6 38.9   1.5 32   7 - 3.1 NNW | 347 7.5   9.0 0.00 0.00 48.2   0.5 72.1   6.2
Mine Pit North 10/18/19 1645 69.5   6.8 38.3   0.1 32   8 - 2.5 SSW | 192 4.8   3.7 - - 45.8   2.9 71.7   5.1
Max     73.3 51.7 47 - 5.0 - 13.7 0.00 0.00 48.6 77.8
Avg     70.0 41.7 36 - 3.4 - 7.9 0.00 - - -
Min     63.7 34.4 32 - 1.5 - 3.7 0.00 0.00 38.0 64.1